sensor_id;sensor_type;location;lat;lon;timestamp;P1;P2;P0
66195;PMS7003;53000;45.182;5.736;2023-06-10T00:00:45;15.75;12.25;10.00
66195;PMS7003;53000;45.182;5.736;2023-06-10T00:03:11;18.00;16.50;13.00
66195;PMS7003;53000;45.182;5.736;2023-06-10T00:05:37;16.00;13.75;10.00
66195;PMS7003;53000;45.182;5.736;2023-06-10T00:08:05;15.50;14.75;11.00
66195;PMS7003;53000;45.182;5.736;2023-06-10T00:10:36;15.00;14.25;11.00
66195;PMS7003;53000;45.182;5.736;2023-06-10T00:13:06;15.25;11.50;9.00
66195;PMS7003;53000;45.182;5.736;2023-06-10T00:15:36;12.00;12.00;8.00
66195;PMS7003;53000;45.182;5.736;2023-06-10T00:18:01;17.75;14.50;11.00
66195;PMS7003;53000;45.182;5.736;2023-06-10T00:20:28;14.75;14.50;10.25
66195;PMS7003;53000;45.182;5.736;2023-06-10T00:22:54;13.00;12.75;9.50
66195;PMS7003;53000;45.182;5.736;2023-06-10T00:25:19;13.00;12.25;9.25
66195;PMS7003;53000;45.182;5.736;2023-06-10T00:27:45;10.25;10.25;7.00
66195;PMS7003;53000;45.182;5.736;2023-06-10T00:30:11;13.75;13.00;9.00
66195;PMS7003;53000;45.182;5.736;2023-06-10T00:32:36;13.25;13.25;10.25
66195;PMS7003;53000;45.182;5.736;2023-06-10T00:35:03;13.75;13.00;9.00
66195;PMS7003;53000;45.182;5.736;2023-06-10T00:37:28;19.00;13.50;10.00
66195;PMS7003;53000;45.182;5.736;2023-06-10T00:39:55;11.00;9.75;7.25
66195;PMS7003;53000;45.182;5.736;2023-06-10T00:42:20;14.75;12.50;9.25
66195;PMS7003;53000;45.182;5.736;2023-06-10T00:44:47;10.00;9.25;8.00
66195;PMS7003;53000;45.182;5.736;2023-06-10T00:47:12;10.33;10.33;8.00
66195;PMS7003;53000;45.182;5.736;2023-06-10T00:49:38;10.00;8.75;7.00
66195;PMS7003;53000;45.182;5.736;2023-06-10T00:52:04;8.25;7.00;6.00
66195;PMS7003;53000;45.182;5.736;2023-06-10T00:54:31;10.25;9.00;6.25
66195;PMS7003;53000;45.182;5.736;2023-06-10T00:57:00;11.00;8.00;6.00
66195;PMS7003;53000;45.182;5.736;2023-06-10T00:59:25;9.50;9.50;7.00
66195;PMS7003;53000;45.182;5.736;2023-06-10T01:01:51;8.00;7.00;6.00
66195;PMS7003;53000;45.182;5.736;2023-06-10T01:04:17;8.00;8.00;6.25
66195;PMS7003;53000;45.182;5.736;2023-06-10T01:06:59;10.00;10.00;7.50
66195;PMS7003;53000;45.182;5.736;2023-06-10T01:10:11;8.00;7.33;6.00
66195;PMS7003;53000;45.182;5.736;2023-06-10T01:13:10;8.75;8.50;6.75
66195;PMS7003;53000;45.182;5.736;2023-06-10T01:15:36;6.75;6.75;5.75
66195;PMS7003;53000;45.182;5.736;2023-06-10T01:18:03;8.25;7.75;6.75
66195;PMS7003;53000;45.182;5.736;2023-06-10T01:20:33;10.00;9.25;8.00
66195;PMS7003;53000;45.182;5.736;2023-06-10T01:23:01;11.75;11.00;9.00
66195;PMS7003;53000;45.182;5.736;2023-06-10T01:25:28;13.00;13.00;8.75
66195;PMS7003;53000;45.182;5.736;2023-06-10T01:27:55;12.00;10.50;8.75
66195;PMS7003;53000;45.182;5.736;2023-06-10T01:30:31;10.00;10.00;7.75
66195;PMS7003;53000;45.182;5.736;2023-06-10T01:33:02;12.00;11.25;7.50
66195;PMS7003;53000;45.182;5.736;2023-06-10T01:35:30;9.25;8.00;7.25
66195;PMS7003;53000;45.182;5.736;2023-06-10T01:37:56;9.50;7.25;6.50
66195;PMS7003;53000;45.182;5.736;2023-06-10T01:40:23;8.00;6.75;5.50
66195;PMS7003;53000;45.182;5.736;2023-06-10T01:42:50;6.00;6.00;4.67
66195;PMS7003;53000;45.182;5.736;2023-06-10T01:45:17;7.67;7.00;6.33
66195;PMS7003;53000;45.182;5.736;2023-06-10T01:47:42;8.75;8.75;7.00
66195;PMS7003;53000;45.182;5.736;2023-06-10T01:50:07;9.25;8.75;4.75
66195;PMS7003;53000;45.182;5.736;2023-06-10T01:52:33;9.00;9.00;6.00
66195;PMS7003;53000;45.182;5.736;2023-06-10T01:54:58;9.00;8.67;6.00
66195;PMS7003;53000;45.182;5.736;2023-06-10T01:57:24;7.67;7.00;5.67
66195;PMS7003;53000;45.182;5.736;2023-06-10T01:59:49;8.33;8.33;6.00
66195;PMS7003;53000;45.182;5.736;2023-06-10T02:02:15;11.00;7.67;5.67
66195;PMS7003;53000;45.182;5.736;2023-06-10T02:04:40;9.33;7.33;6.00
66195;PMS7003;53000;45.182;5.736;2023-06-10T02:07:06;5.67;5.33;3.00
66195;PMS7003;53000;45.182;5.736;2023-06-10T02:09:31;9.00;7.67;6.00
66195;PMS7003;53000;45.182;5.736;2023-06-10T02:11:59;7.25;6.75;5.50
66195;PMS7003;53000;45.182;5.736;2023-06-10T02:14:25;10.33;10.33;7.00
66195;PMS7003;53000;45.182;5.736;2023-06-10T02:16:50;9.75;8.75;7.00
66195;PMS7003;53000;45.182;5.736;2023-06-10T02:19:16;11.75;10.50;8.00
66195;PMS7003;53000;45.182;5.736;2023-06-10T02:21:42;10.50;8.50;6.75
66195;PMS7003;53000;45.182;5.736;2023-06-10T02:24:07;11.50;10.25;9.00
66195;PMS7003;53000;45.182;5.736;2023-06-10T02:26:33;11.50;7.75;5.75
66195;PMS7003;53000;45.182;5.736;2023-06-10T02:28:58;11.75;11.00;7.25
66195;PMS7003;53000;45.182;5.736;2023-06-10T02:31:23;10.50;10.00;8.00
66195;PMS7003;53000;45.182;5.736;2023-06-10T02:33:50;11.50;9.50;6.00
66195;PMS7003;53000;45.182;5.736;2023-06-10T02:36:15;10.00;9.00;8.00
66195;PMS7003;53000;45.182;5.736;2023-06-10T02:38:41;10.75;10.75;7.75
66195;PMS7003;53000;45.182;5.736;2023-06-10T02:41:07;14.00;10.75;9.00
66195;PMS7003;53000;45.182;5.736;2023-06-10T02:43:32;11.00;11.00;7.50
66195;PMS7003;53000;45.182;5.736;2023-06-10T02:45:58;13.00;11.75;9.00
66195;PMS7003;53000;45.182;5.736;2023-06-10T02:48:23;11.00;11.00;8.00
66195;PMS7003;53000;45.182;5.736;2023-06-10T02:50:49;11.75;11.00;8.00
66195;PMS7003;53000;45.182;5.736;2023-06-10T02:53:15;13.25;10.75;8.50
66195;PMS7003;53000;45.182;5.736;2023-06-10T02:55:40;14.25;13.75;10.50
66195;PMS7003;53000;45.182;5.736;2023-06-10T02:58:05;13.25;13.25;11.00
66195;PMS7003;53000;45.182;5.736;2023-06-10T03:00:32;16.50;15.75;12.00
66195;PMS7003;53000;45.182;5.736;2023-06-10T03:02:58;17.25;16.25;11.75
66195;PMS7003;53000;45.182;5.736;2023-06-10T03:05:27;14.25;13.25;9.75
66195;PMS7003;53000;45.182;5.736;2023-06-10T03:07:53;11.75;11.75;9.75
66195;PMS7003;53000;45.182;5.736;2023-06-10T03:10:19;11.25;11.25;8.75
66195;PMS7003;53000;45.182;5.736;2023-06-10T03:12:44;11.75;11.00;8.75
66195;PMS7003;53000;45.182;5.736;2023-06-10T03:15:09;10.75;10.25;8.00
66195;PMS7003;53000;45.182;5.736;2023-06-10T03:17:35;14.00;12.50;9.00
66195;PMS7003;53000;45.182;5.736;2023-06-10T03:20:00;10.75;10.75;7.25
66195;PMS7003;53000;45.182;5.736;2023-06-10T03:22:25;12.50;11.50;9.00
66195;PMS7003;53000;45.182;5.736;2023-06-10T03:24:51;11.00;10.25;7.25
66195;PMS7003;53000;45.182;5.736;2023-06-10T03:27:16;11.25;10.25;8.50
66195;PMS7003;53000;45.182;5.736;2023-06-10T03:29:41;11.75;11.75;9.00
66195;PMS7003;53000;45.182;5.736;2023-06-10T03:32:07;11.00;10.75;7.50
66195;PMS7003;53000;45.182;5.736;2023-06-10T03:34:32;11.00;9.67;6.67
66195;PMS7003;53000;45.182;5.736;2023-06-10T03:36:58;12.33;10.33;6.67
66195;PMS7003;53000;45.182;5.736;2023-06-10T03:39:25;8.00;6.25;3.50
66195;PMS7003;53000;45.182;5.736;2023-06-10T03:41:53;11.00;10.75;7.50
66195;PMS7003;53000;45.182;5.736;2023-06-10T03:44:19;12.00;10.25;8.00
66195;PMS7003;53000;45.182;5.736;2023-06-10T03:46:44;8.00;8.00;6.00
66195;PMS7003;53000;45.182;5.736;2023-06-10T03:49:10;9.50;9.00;7.00
66195;PMS7003;53000;45.182;5.736;2023-06-10T03:51:36;12.33;11.00;8.00
66195;PMS7003;53000;45.182;5.736;2023-06-10T03:54:01;11.00;9.00;7.00
66195;PMS7003;53000;45.182;5.736;2023-06-10T03:56:27;12.25;12.00;8.25
66195;PMS7003;53000;45.182;5.736;2023-06-10T03:58:53;10.50;10.50;8.00
66195;PMS7003;53000;45.182;5.736;2023-06-10T04:01:19;11.75;10.00;7.75
66195;PMS7003;53000;45.182;5.736;2023-06-10T04:03:46;10.50;10.00;7.00
66195;PMS7003;53000;45.182;5.736;2023-06-10T04:06:14;11.75;11.00;9.25
66195;PMS7003;53000;45.182;5.736;2023-06-10T04:08:39;9.50;8.50;7.25
66195;PMS7003;53000;45.182;5.736;2023-06-10T04:11:05;8.25;7.25;6.50
66195;PMS7003;53000;45.182;5.736;2023-06-10T04:13:30;10.00;10.00;7.25
66195;PMS7003;53000;45.182;5.736;2023-06-10T04:15:56;7.25;7.25;6.00
66195;PMS7003;53000;45.182;5.736;2023-06-10T04:18:21;10.25;9.00;7.00
66195;PMS7003;53000;45.182;5.736;2023-06-10T04:20:47;13.00;9.25;8.00
66195;PMS7003;53000;45.182;5.736;2023-06-10T04:23:12;12.00;10.75;8.00
66195;PMS7003;53000;45.182;5.736;2023-06-10T04:25:38;11.50;11.50;8.00
66195;PMS7003;53000;45.182;5.736;2023-06-10T04:28:03;9.00;7.25;6.25
66195;PMS7003;53000;45.182;5.736;2023-06-10T04:30:29;11.25;8.75;5.75
66195;PMS7003;53000;45.182;5.736;2023-06-10T04:32:57;10.33;9.33;8.00
66195;PMS7003;53000;45.182;5.736;2023-06-10T04:35:22;12.00;10.25;7.50
66195;PMS7003;53000;45.182;5.736;2023-06-10T04:37:48;11.00;10.00;7.67
66195;PMS7003;53000;45.182;5.736;2023-06-10T04:40:13;12.25;9.75;7.00
66195;PMS7003;53000;45.182;5.736;2023-06-10T04:42:40;10.50;10.50;7.50
66195;PMS7003;53000;45.182;5.736;2023-06-10T04:45:06;11.00;10.00;7.50
66195;PMS7003;53000;45.182;5.736;2023-06-10T04:47:32;10.33;9.00;7.00
66195;PMS7003;53000;45.182;5.736;2023-06-10T04:49:58;9.67;9.67;7.00
66195;PMS7003;53000;45.182;5.736;2023-06-10T04:52:26;11.25;10.50;8.00
66195;PMS7003;53000;45.182;5.736;2023-06-10T04:54:52;12.25;11.00;7.50
66195;PMS7003;53000;45.182;5.736;2023-06-10T04:57:18;14.25;11.00;8.00
66195;PMS7003;53000;45.182;5.736;2023-06-10T04:59:45;12.00;10.25;8.00
66195;PMS7003;53000;45.182;5.736;2023-06-10T05:02:10;10.00;10.00;7.75
66195;PMS7003;53000;45.182;5.736;2023-06-10T05:04:36;11.75;10.50;8.00
66195;PMS7003;53000;45.182;5.736;2023-06-10T05:07:01;11.00;11.00;7.50
66195;PMS7003;53000;45.182;5.736;2023-06-10T05:09:26;8.00;8.00;7.00
66195;PMS7003;53000;45.182;5.736;2023-06-10T05:11:52;10.25;9.25;7.75
66195;PMS7003;53000;45.182;5.736;2023-06-10T05:14:18;12.25;11.25;8.50
66195;PMS7003;53000;45.182;5.736;2023-06-10T05:16:45;12.25;12.25;10.50
66195;PMS7003;53000;45.182;5.736;2023-06-10T05:19:11;11.50;10.50;8.50
66195;PMS7003;53000;45.182;5.736;2023-06-10T05:21:37;10.50;9.00;7.00
66195;PMS7003;53000;45.182;5.736;2023-06-10T05:24:02;12.75;12.75;8.50
66195;PMS7003;53000;45.182;5.736;2023-06-10T05:26:28;10.50;10.50;7.75
66195;PMS7003;53000;45.182;5.736;2023-06-10T05:28:54;12.50;7.50;6.00
66195;PMS7003;53000;45.182;5.736;2023-06-10T05:31:19;10.00;10.00;8.25
66195;PMS7003;53000;45.182;5.736;2023-06-10T05:33:44;11.75;11.00;8.50
66195;PMS7003;53000;45.182;5.736;2023-06-10T05:36:10;11.25;10.50;8.25
66195;PMS7003;53000;45.182;5.736;2023-06-10T05:38:35;10.75;9.00;7.75
66195;PMS7003;53000;45.182;5.736;2023-06-10T05:41:01;15.50;10.75;9.50
66195;PMS7003;53000;45.182;5.736;2023-06-10T05:43:26;16.75;15.00;11.25
66195;PMS7003;53000;45.182;5.736;2023-06-10T05:45:51;11.50;11.00;9.75
66195;PMS7003;53000;45.182;5.736;2023-06-10T05:48:17;13.75;13.25;9.75
66195;PMS7003;53000;45.182;5.736;2023-06-10T05:50:44;14.75;11.50;10.00
66195;PMS7003;53000;45.182;5.736;2023-06-10T05:53:13;12.75;10.75;9.25
66195;PMS7003;53000;45.182;5.736;2023-06-10T05:55:41;11.00;9.50;6.75
66195;PMS7003;53000;45.182;5.736;2023-06-10T05:58:08;10.50;10.50;8.00
66195;PMS7003;53000;45.182;5.736;2023-06-10T06:00:33;12.25;9.25;8.00
66195;PMS7003;53000;45.182;5.736;2023-06-10T06:02:59;6.00;6.00;4.00
66195;PMS7003;53000;45.182;5.736;2023-06-10T06:05:24;7.00;7.00;6.00
66195;PMS7003;53000;45.182;5.736;2023-06-10T06:07:50;10.00;9.00;7.00
66195;PMS7003;53000;45.182;5.736;2023-06-10T06:10:17;10.00;9.75;8.00
66195;PMS7003;53000;45.182;5.736;2023-06-10T06:12:43;8.00;8.00;7.00
66195;PMS7003;53000;45.182;5.736;2023-06-10T06:15:08;11.75;10.00;7.75
66195;PMS7003;53000;45.182;5.736;2023-06-10T06:17:35;12.50;9.50;7.50
66195;PMS7003;53000;45.182;5.736;2023-06-10T06:20:01;15.00;11.00;8.50
66195;PMS7003;53000;45.182;5.736;2023-06-10T06:22:26;11.25;9.50;7.25
66195;PMS7003;53000;45.182;5.736;2023-06-10T06:24:52;10.75;10.75;8.75
66195;PMS7003;53000;45.182;5.736;2023-06-10T06:27:17;13.00;13.00;9.75
66195;PMS7003;53000;45.182;5.736;2023-06-10T06:29:42;13.75;12.25;9.50
66195;PMS7003;53000;45.182;5.736;2023-06-10T06:32:08;11.75;10.00;8.00
66195;PMS7003;53000;45.182;5.736;2023-06-10T06:34:33;12.25;10.75;8.00
66195;PMS7003;53000;45.182;5.736;2023-06-10T06:36:58;13.25;11.50;9.00
66195;PMS7003;53000;45.182;5.736;2023-06-10T06:39:24;11.75;11.75;9.00
66195;PMS7003;53000;45.182;5.736;2023-06-10T06:41:49;16.00;12.50;9.75
66195;PMS7003;53000;45.182;5.736;2023-06-10T06:44:14;14.25;13.00;10.00
66195;PMS7003;53000;45.182;5.736;2023-06-10T06:46:40;12.50;11.00;9.00
66195;PMS7003;53000;45.182;5.736;2023-06-10T06:49:05;13.00;11.33;9.00
66195;PMS7003;53000;45.182;5.736;2023-06-10T06:51:31;10.75;10.75;8.00
66195;PMS7003;53000;45.182;5.736;2023-06-10T06:53:56;8.25;8.25;7.00
66195;PMS7003;53000;45.182;5.736;2023-06-10T06:56:23;11.25;11.25;9.50
66195;PMS7003;53000;45.182;5.736;2023-06-10T06:58:49;12.50;11.50;9.00
66195;PMS7003;53000;45.182;5.736;2023-06-10T07:01:15;14.75;12.00;9.25
66195;PMS7003;53000;45.182;5.736;2023-06-10T07:03:40;11.25;10.00;8.00
66195;PMS7003;53000;45.182;5.736;2023-06-10T07:06:06;13.25;13.00;10.00
66195;PMS7003;53000;45.182;5.736;2023-06-10T07:08:31;13.50;12.00;9.00
66195;PMS7003;53000;45.182;5.736;2023-06-10T07:10:56;15.00;13.00;11.00
66195;PMS7003;53000;45.182;5.736;2023-06-10T07:13:22;14.75;11.00;8.25
66195;PMS7003;53000;45.182;5.736;2023-06-10T07:15:47;13.75;12.25;10.75
66195;PMS7003;53000;45.182;5.736;2023-06-10T07:18:14;11.00;10.50;7.75
66195;PMS7003;53000;45.182;5.736;2023-06-10T07:20:40;12.00;11.33;8.67
66195;PMS7003;53000;45.182;5.736;2023-06-10T07:23:06;11.00;9.67;8.00
66195;PMS7003;53000;45.182;5.736;2023-06-10T07:25:31;6.00;6.00;6.00
66195;PMS7003;53000;45.182;5.736;2023-06-10T07:27:57;14.33;11.33;8.00
66195;PMS7003;53000;45.182;5.736;2023-06-10T07:30:22;11.67;10.00;8.67
66195;PMS7003;53000;45.182;5.736;2023-06-10T07:32:47;10.67;10.67;8.00
66195;PMS7003;53000;45.182;5.736;2023-06-10T07:35:13;13.00;12.00;8.67
66195;PMS7003;53000;45.182;5.736;2023-06-10T07:37:38;14.00;12.25;9.75
66195;PMS7003;53000;45.182;5.736;2023-06-10T07:40:04;8.75;6.50;3.75
66195;PMS7003;53000;45.182;5.736;2023-06-10T07:42:31;14.50;14.00;9.75
66195;PMS7003;53000;45.182;5.736;2023-06-10T07:44:59;7.00;7.00;6.00
66195;PMS7003;53000;45.182;5.736;2023-06-10T07:47:24;10.25;8.50;7.00
66195;PMS7003;53000;45.182;5.736;2023-06-10T07:49:50;10.75;8.75;7.00
66195;PMS7003;53000;45.182;5.736;2023-06-10T07:52:15;10.00;10.00;8.00
66195;PMS7003;53000;45.182;5.736;2023-06-10T07:54:40;9.25;8.50;6.00
66195;PMS7003;53000;45.182;5.736;2023-06-10T07:57:06;9.00;8.50;7.00
66195;PMS7003;53000;45.182;5.736;2023-06-10T07:59:34;11.00;9.00;6.00
66195;PMS7003;53000;45.182;5.736;2023-06-10T08:02:00;11.00;9.75;8.00
66195;PMS7003;53000;45.182;5.736;2023-06-10T08:04:25;8.75;8.50;7.25
66195;PMS7003;53000;45.182;5.736;2023-06-10T08:06:50;11.00;9.50;7.25
66195;PMS7003;53000;45.182;5.736;2023-06-10T08:09:16;9.25;8.00;6.00
66195;PMS7003;53000;45.182;5.736;2023-06-10T08:11:43;9.00;8.00;6.75
66195;PMS7003;53000;45.182;5.736;2023-06-10T08:14:08;8.75;8.75;6.50
66195;PMS7003;53000;45.182;5.736;2023-06-10T08:16:34;7.25;7.25;5.75
66195;PMS7003;53000;45.182;5.736;2023-06-10T08:18:59;10.25;8.25;6.00
66195;PMS7003;53000;45.182;5.736;2023-06-10T08:21:24;8.00;8.00;6.50
66195;PMS7003;53000;45.182;5.736;2023-06-10T08:23:52;9.00;7.75;6.00
66195;PMS7003;53000;45.182;5.736;2023-06-10T08:26:19;7.50;7.00;5.50
66195;PMS7003;53000;45.182;5.736;2023-06-10T08:28:44;8.00;7.00;5.00
66195;PMS7003;53000;45.182;5.736;2023-06-10T08:31:10;8.50;6.50;5.25
66195;PMS7003;53000;45.182;5.736;2023-06-10T08:33:35;8.00;8.00;6.50
66195;PMS7003;53000;45.182;5.736;2023-06-10T08:36:00;6.00;6.00;5.00
66195;PMS7003;53000;45.182;5.736;2023-06-10T08:38:26;7.25;5.25;5.25
66195;PMS7003;53000;45.182;5.736;2023-06-10T08:40:51;5.50;4.75;3.00
66195;PMS7003;53000;45.182;5.736;2023-06-10T08:43:30;10.00;6.00;4.75
66195;PMS7003;53000;45.182;5.736;2023-06-10T08:46:00;5.00;5.00;4.25
66195;PMS7003;53000;45.182;5.736;2023-06-10T08:48:27;5.50;5.25;4.75
66195;PMS7003;53000;45.182;5.736;2023-06-10T08:50:56;6.00;5.00;4.50
66195;PMS7003;53000;45.182;5.736;2023-06-10T08:53:22;9.25;7.00;5.25
66195;PMS7003;53000;45.182;5.736;2023-06-10T08:55:50;5.25;4.75;4.00
66195;PMS7003;53000;45.182;5.736;2023-06-10T08:58:19;4.00;3.75;1.00
66195;PMS7003;53000;45.182;5.736;2023-06-10T09:00:45;6.75;6.75;5.50
66195;PMS7003;53000;45.182;5.736;2023-06-10T09:03:11;4.75;4.75;4.00
66195;PMS7003;53000;45.182;5.736;2023-06-10T09:05:37;6.25;6.25;5.50
66195;PMS7003;53000;45.182;5.736;2023-06-10T09:08:03;6.75;6.25;5.25
66195;PMS7003;53000;45.182;5.736;2023-06-10T09:10:30;8.75;8.75;6.50
66195;PMS7003;53000;45.182;5.736;2023-06-10T09:12:56;9.00;8.75;7.25
66195;PMS7003;53000;45.182;5.736;2023-06-10T09:15:22;8.00;8.00;7.00
66195;PMS7003;53000;45.182;5.736;2023-06-10T09:17:47;7.75;7.50;5.00
66195;PMS7003;53000;45.182;5.736;2023-06-10T09:20:12;7.00;7.00;5.00
66195;PMS7003;53000;45.182;5.736;2023-06-10T09:22:38;7.75;7.00;5.75
66195;PMS7003;53000;45.182;5.736;2023-06-10T09:27:48;8.25;8.25;6.75
66195;PMS7003;53000;45.182;5.736;2023-06-10T09:32:52;9.50;8.75;7.00
66195;PMS7003;53000;45.182;5.736;2023-06-10T09:35:24;7.00;6.50;5.75
66195;PMS7003;53000;45.182;5.736;2023-06-10T09:37:55;7.25;6.75;5.00
66195;PMS7003;53000;45.182;5.736;2023-06-10T09:40:24;8.00;6.00;5.00
66195;PMS7003;53000;45.182;5.736;2023-06-10T09:42:54;5.75;5.00;4.00
66195;PMS7003;53000;45.182;5.736;2023-06-10T09:45:23;5.00;5.00;3.75
66195;PMS7003;53000;45.182;5.736;2023-06-10T09:47:54;6.00;6.00;5.00
66195;PMS7003;53000;45.182;5.736;2023-06-10T09:50:20;8.50;8.00;6.50
66195;PMS7003;53000;45.182;5.736;2023-06-10T09:52:46;6.75;6.75;5.50
66195;PMS7003;53000;45.182;5.736;2023-06-10T09:55:15;7.75;7.00;6.00
66195;PMS7003;53000;45.182;5.736;2023-06-10T09:57:40;7.50;7.50;6.00
66195;PMS7003;53000;45.182;5.736;2023-06-10T10:00:08;6.75;6.75;5.50
66195;PMS7003;53000;45.182;5.736;2023-06-10T10:02:50;7.50;7.50;5.75
66195;PMS7003;53000;45.182;5.736;2023-06-10T10:05:17;7.25;7.25;6.00
66195;PMS7003;53000;45.182;5.736;2023-06-10T10:07:44;9.75;9.75;6.75
66195;PMS7003;53000;45.182;5.736;2023-06-10T10:10:10;7.75;6.75;5.25
66195;PMS7003;53000;45.182;5.736;2023-06-10T10:12:40;7.00;5.25;4.00
66195;PMS7003;53000;45.182;5.736;2023-06-10T10:15:07;10.00;8.75;6.50
66195;PMS7003;53000;45.182;5.736;2023-06-10T10:17:34;6.25;5.50;4.75
66195;PMS7003;53000;45.182;5.736;2023-06-10T10:20:05;8.25;6.50;5.50
66195;PMS7003;53000;45.182;5.736;2023-06-10T10:22:38;7.25;6.00;5.00
66195;PMS7003;53000;45.182;5.736;2023-06-10T10:25:06;5.00;5.00;4.50
66195;PMS7003;53000;45.182;5.736;2023-06-10T10:27:36;4.50;4.50;3.50
66195;PMS7003;53000;45.182;5.736;2023-06-10T10:30:08;6.50;6.50;4.75
66195;PMS7003;53000;45.182;5.736;2023-06-10T10:32:56;7.75;7.75;6.00
66195;PMS7003;53000;45.182;5.736;2023-06-10T10:35:24;8.00;7.50;5.25
66195;PMS7003;53000;45.182;5.736;2023-06-10T10:37:53;5.75;5.50;4.25
66195;PMS7003;53000;45.182;5.736;2023-06-10T10:40:22;6.00;6.00;4.25
66195;PMS7003;53000;45.182;5.736;2023-06-10T10:42:49;4.00;4.00;3.25
66195;PMS7003;53000;45.182;5.736;2023-06-10T10:45:16;16.25;16.00;13.00
66195;PMS7003;53000;45.182;5.736;2023-06-10T10:47:45;9.00;9.00;7.50
66195;PMS7003;53000;45.182;5.736;2023-06-10T10:50:14;6.25;5.25;4.25
66195;PMS7003;53000;45.182;5.736;2023-06-10T10:52:46;3.25;3.25;3.00
66195;PMS7003;53000;45.182;5.736;2023-06-10T10:55:18;4.25;4.25;4.00
66195;PMS7003;53000;45.182;5.736;2023-06-10T10:57:43;4.00;4.00;3.00
66195;PMS7003;53000;45.182;5.736;2023-06-10T11:00:10;3.25;3.00;3.00
66195;PMS7003;53000;45.182;5.736;2023-06-10T11:05:06;2.75;2.50;2.25
66195;PMS7003;53000;45.182;5.736;2023-06-10T11:07:33;3.50;2.50;2.00
66195;PMS7003;53000;45.182;5.736;2023-06-10T11:10:05;1.75;1.75;1.00
66195;PMS7003;53000;45.182;5.736;2023-06-10T11:12:40;3.50;2.25;2.00
66195;PMS7003;53000;45.182;5.736;2023-06-10T11:15:07;2.50;2.50;2.50
66195;PMS7003;53000;45.182;5.736;2023-06-10T11:17:33;3.00;2.00;2.00
66195;PMS7003;53000;45.182;5.736;2023-06-10T11:19:58;3.25;2.75;2.00
66195;PMS7003;53000;45.182;5.736;2023-06-10T11:22:24;1.50;1.50;1.00
66195;PMS7003;53000;45.182;5.736;2023-06-10T11:24:50;2.00;2.00;1.25
66195;PMS7003;53000;45.182;5.736;2023-06-10T11:27:19;0.00;0.00;0.00
66195;PMS7003;53000;45.182;5.736;2023-06-10T11:32:42;1.25;1.25;1.00
66195;PMS7003;53000;45.182;5.736;2023-06-10T11:35:08;3.25;3.25;2.50
66195;PMS7003;53000;45.182;5.736;2023-06-10T11:37:34;2.50;2.50;2.00
66195;PMS7003;53000;45.182;5.736;2023-06-10T11:39:59;1.75;1.75;1.00
66195;PMS7003;53000;45.182;5.736;2023-06-10T11:42:24;2.25;2.25;2.00
66195;PMS7003;53000;45.182;5.736;2023-06-10T11:44:50;12.00;12.00;8.00
66195;PMS7003;53000;45.182;5.736;2023-06-10T11:47:17;3.00;3.00;2.00
66195;PMS7003;53000;45.182;5.736;2023-06-10T11:49:43;3.75;3.75;2.25
66195;PMS7003;53000;45.182;5.736;2023-06-10T11:52:08;4.00;4.00;3.00
66195;PMS7003;53000;45.182;5.736;2023-06-10T11:54:34;3.00;3.00;3.00
66195;PMS7003;53000;45.182;5.736;2023-06-10T11:56:59;4.00;2.00;2.00
66195;PMS7003;53000;45.182;5.736;2023-06-10T11:59:28;2.00;2.00;2.00
66195;PMS7003;53000;45.182;5.736;2023-06-10T12:01:54;3.00;3.00;3.00
66195;PMS7003;53000;45.182;5.736;2023-06-10T12:04:20;2.00;0.75;0.00
66195;PMS7003;53000;45.182;5.736;2023-06-10T12:06:50;1.00;1.00;1.00
66195;PMS7003;53000;45.182;5.736;2023-06-10T12:09:20;1.25;1.25;1.00
66195;PMS7003;53000;45.182;5.736;2023-06-10T12:11:52;4.75;4.25;3.00
66195;PMS7003;53000;45.182;5.736;2023-06-10T12:17:15;3.00;3.00;2.00
66195;PMS7003;53000;45.182;5.736;2023-06-10T12:19:40;3.75;3.00;2.00
66195;PMS7003;53000;45.182;5.736;2023-06-10T12:22:05;1.00;1.00;0.75
66195;PMS7003;53000;45.182;5.736;2023-06-10T12:24:31;2.75;2.75;2.00
66195;PMS7003;53000;45.182;5.736;2023-06-10T12:26:56;4.50;4.50;3.00
66195;PMS7003;53000;45.182;5.736;2023-06-10T12:29:23;6.50;4.50;4.00
66195;PMS7003;53000;45.182;5.736;2023-06-10T12:36:54;7.00;6.25;4.75
66195;PMS7003;53000;45.182;5.736;2023-06-10T12:39:20;5.25;5.25;4.25
66195;PMS7003;53000;45.182;5.736;2023-06-10T12:41:49;5.50;5.50;4.75
66195;PMS7003;53000;45.182;5.736;2023-06-10T12:44:16;2.25;2.25;1.75
66195;PMS7003;53000;45.182;5.736;2023-06-10T12:46:41;3.00;3.00;2.75
66195;PMS7003;53000;45.182;5.736;2023-06-10T12:49:06;3.00;3.00;2.00
66195;PMS7003;53000;45.182;5.736;2023-06-10T12:51:32;4.00;3.25;2.50
66195;PMS7003;53000;45.182;5.736;2023-06-10T12:53:59;3.00;3.00;3.00
66195;PMS7003;53000;45.182;5.736;2023-06-10T12:56:25;4.00;4.00;2.50
66195;PMS7003;53000;45.182;5.736;2023-06-10T12:58:50;3.50;1.75;1.75
66195;PMS7003;53000;45.182;5.736;2023-06-10T13:01:15;3.75;3.00;2.50
66195;PMS7003;53000;45.182;5.736;2023-06-10T13:03:41;2.00;2.00;2.00
66195;PMS7003;53000;45.182;5.736;2023-06-10T13:06:06;1.25;1.25;1.00
66195;PMS7003;53000;45.182;5.736;2023-06-10T13:08:32;4.25;3.25;2.25
66195;PMS7003;53000;45.182;5.736;2023-06-10T13:10:57;2.50;2.00;1.25
66195;PMS7003;53000;45.182;5.736;2023-06-10T13:13:23;1.50;1.50;1.00
66195;PMS7003;53000;45.182;5.736;2023-06-10T13:15:49;2.25;2.25;2.00
66195;PMS7003;53000;45.182;5.736;2023-06-10T13:18:15;1.25;1.00;1.00
66195;PMS7003;53000;45.182;5.736;2023-06-10T13:20:40;2.00;2.00;2.00
66195;PMS7003;53000;45.182;5.736;2023-06-10T13:23:06;1.25;1.00;1.00
66195;PMS7003;53000;45.182;5.736;2023-06-10T13:25:31;3.00;2.00;1.50
66195;PMS7003;53000;45.182;5.736;2023-06-10T13:27:57;1.00;1.00;1.00
66195;PMS7003;53000;45.182;5.736;2023-06-10T13:30:22;0.25;0.25;0.00
66195;PMS7003;53000;45.182;5.736;2023-06-10T13:32:48;1.50;1.50;1.00
66195;PMS7003;53000;45.182;5.736;2023-06-10T13:35:13;2.75;2.00;1.00
66195;PMS7003;53000;45.182;5.736;2023-06-10T13:37:38;1.25;1.25;1.00
66195;PMS7003;53000;45.182;5.736;2023-06-10T13:40:04;2.75;2.75;2.00
66195;PMS7003;53000;45.182;5.736;2023-06-10T13:42:30;2.00;2.00;1.00
66195;PMS7003;53000;45.182;5.736;2023-06-10T13:44:56;2.00;2.00;1.75
66195;PMS7003;53000;45.182;5.736;2023-06-10T13:47:21;1.00;1.00;1.00
66195;PMS7003;53000;45.182;5.736;2023-06-10T13:49:47;2.00;2.00;1.50
66195;PMS7003;53000;45.182;5.736;2023-06-10T13:52:12;1.00;1.00;1.00
66195;PMS7003;53000;45.182;5.736;2023-06-10T13:54:37;1.00;0.25;0.00
66195;PMS7003;53000;45.182;5.736;2023-06-10T13:57:03;5.00;5.00;4.75
66195;PMS7003;53000;45.182;5.736;2023-06-10T13:59:28;2.75;2.50;1.50
66195;PMS7003;53000;45.182;5.736;2023-06-10T14:01:54;1.50;1.00;1.00
66195;PMS7003;53000;45.182;5.736;2023-06-10T14:04:20;1.50;1.00;0.75
66195;PMS7003;53000;45.182;5.736;2023-06-10T14:06:46;2.00;2.00;1.50
66195;PMS7003;53000;45.182;5.736;2023-06-10T14:09:14;1.25;1.00;1.00
66195;PMS7003;53000;45.182;5.736;2023-06-10T14:11:41;1.75;1.75;1.00
66195;PMS7003;53000;45.182;5.736;2023-06-10T14:14:07;1.50;1.50;1.50
66195;PMS7003;53000;45.182;5.736;2023-06-10T14:16:32;1.00;1.00;1.00
66195;PMS7003;53000;45.182;5.736;2023-06-10T14:18:57;2.00;2.00;1.50
66195;PMS7003;53000;45.182;5.736;2023-06-10T14:21:23;3.25;1.75;1.25
66195;PMS7003;53000;45.182;5.736;2023-06-10T14:23:48;2.00;2.00;2.00
66195;PMS7003;53000;45.182;5.736;2023-06-10T14:26:15;2.00;1.75;1.75